createdAt,value
2022-11-10T00:02:18.041Z,101130.08
2022-11-10T00:05:06.288Z,101120.00
2022-11-10T00:07:54.573Z,101124.22
2022-11-10T00:10:58.458Z,101121.16
2022-11-10T00:14:06.579Z,101119.29
2022-11-10T00:17:04.756Z,101113.36
2022-11-10T00:19:53.149Z,101114.86
2022-11-10T00:22:42.428Z,101117.72
2022-11-10T00:25:32.099Z,101117.02
2022-11-10T00:28:19.909Z,101108.00
2022-11-10T00:31:08.039Z,101114.30
2022-11-10T00:33:56.220Z,101110.52
2022-11-10T00:36:44.087Z,101105.88
2022-11-10T00:39:31.519Z,101101.44
2022-11-10T00:42:18.615Z,101097.86
2022-11-10T00:45:07.637Z,101095.80
2022-11-10T00:47:55.814Z,101096.30
2022-11-10T00:50:43.454Z,101092.62
2022-11-10T00:53:32.014Z,101089.41
2022-11-10T00:56:19.506Z,101089.41
2022-11-10T00:59:07.380Z,101092.27
2022-11-10T01:01:56.204Z,101087.13
2022-11-10T01:04:44.243Z,101083.92
2022-11-10T01:07:32.743Z,101088.34
2022-11-10T01:10:20.382Z,101083.98
2022-11-10T01:13:07.597Z,101079.91
2022-11-10T01:15:55.039Z,101074.77
2022-11-10T01:18:43.726Z,101066.77
2022-11-10T01:21:31.908Z,101072.19
2022-11-10T01:24:21.716Z,101073.05
2022-11-10T01:27:09.348Z,101069.98
2022-11-10T01:29:56.949Z,101063.19
2022-11-10T01:32:46.335Z,101056.25
2022-11-10T01:35:35.228Z,101063.40
2022-11-10T01:38:25.840Z,101066.26
2022-11-10T01:41:14.310Z,101063.84
2022-11-10T01:44:18.434Z,101067.27
2022-11-10T01:47:06.006Z,101072.70
2022-11-10T01:49:54.583Z,101075.62
2022-11-10T01:52:44.584Z,101075.13
2022-11-10T01:55:35.027Z,101075.97
2022-11-10T01:58:26.270Z,101076.83
2022-11-10T02:01:14.094Z,101073.26
2022-11-10T02:04:07.948Z,101069.33
2022-11-10T02:06:55.559Z,101068.69
2022-11-10T02:09:43.150Z,101078.55
2022-11-10T02:12:37.245Z,101075.33
2022-11-10T02:15:24.842Z,101078.40
2022-11-10T02:18:14.519Z,101074.92
2022-11-10T02:21:06.019Z,101069.70
2022-11-10T02:23:54.472Z,101078.70
2022-11-10T02:26:49.135Z,101081.42
2022-11-10T02:29:37.925Z,101089.36
2022-11-10T02:32:25.770Z,101076.42
2022-11-10T02:35:15.210Z,101079.41
2022-11-10T02:38:03.280Z,101087.05
2022-11-10T02:40:51.530Z,101082.56
2022-11-10T02:43:41.204Z,101086.92
2022-11-10T02:46:28.729Z,101085.00
2022-11-10T02:49:15.964Z,101089.22
2022-11-10T02:52:03.308Z,101089.22
2022-11-10T02:54:51.772Z,101082.28
2022-11-10T02:57:40.964Z,101084.29
2022-11-10T03:00:28.694Z,101083.94
2022-11-10T03:03:16.028Z,101083.29
2022-11-10T03:06:04.319Z,101081.28
2022-11-10T03:08:52.554Z,101081.78
2022-11-10T03:11:39.583Z,101077.77
2022-11-10T03:14:27.210Z,101074.12
2022-11-10T03:17:15.750Z,101076.28
2022-11-10T03:20:04.045Z,101071.62
2022-11-10T03:22:52.407Z,101072.53
2022-11-10T03:25:40.437Z,101069.52
2022-11-10T03:28:28.635Z,101066.56
2022-11-10T03:31:16.196Z,101066.63
2022-11-10T03:34:03.212Z,101062.45
2022-11-10T03:36:50.393Z,101064.88
2022-11-10T03:39:40.056Z,101051.98
2022-11-10T03:42:28.649Z,101057.18
2022-11-10T03:45:16.381Z,101051.94
2022-11-10T03:48:05.718Z,101052.65
2022-11-10T03:50:53.185Z,101055.57
2022-11-10T03:53:42.034Z,101048.62
2022-11-10T03:56:29.809Z,101046.11
2022-11-10T03:59:17.981Z,101047.16
2022-11-10T04:02:05.728Z,101044.45
2022-11-10T04:05:12.933Z,101042.78
2022-11-10T04:08:18.759Z,101040.14
2022-11-10T04:11:06.530Z,101039.38
2022-11-10T04:14:11.874Z,101043.45
2022-11-10T04:17:01.045Z,101041.44
2022-11-10T04:19:48.155Z,101045.36
2022-11-10T04:22:54.112Z,101042.99
2022-11-10T04:25:44.063Z,101051.20
2022-11-10T04:28:33.174Z,101053.97
2022-11-10T04:31:22.441Z,101051.25
2022-11-10T04:34:13.073Z,101052.61
2022-11-10T04:37:01.023Z,101047.02
2022-11-10T04:39:48.432Z,101042.62
2022-11-10T04:42:36.113Z,101043.18
2022-11-10T04:45:23.418Z,101046.41
2022-11-10T04:48:11.665Z,101050.28
2022-11-10T04:51:07.110Z,101044.84
2022-11-10T04:53:55.100Z,101051.64
2022-11-10T04:56:43.240Z,101055.77
2022-11-10T04:59:31.240Z,101047.96
2022-11-10T05:02:18.526Z,101056.32
2022-11-10T05:05:08.293Z,101052.59
2022-11-10T05:07:58.108Z,101059.23
2022-11-10T05:10:47.703Z,101055.86
2022-11-10T05:13:36.473Z,101068.45
2022-11-10T05:16:23.666Z,101066.95
2022-11-10T05:19:11.818Z,101079.70
2022-11-10T05:21:59.159Z,101081.25
2022-11-10T05:24:46.459Z,101077.83
2022-11-10T05:27:34.733Z,101073.09
2022-11-10T05:30:22.976Z,101078.53
2022-11-10T05:33:11.938Z,101075.16
2022-11-10T05:35:59.698Z,101085.38
2022-11-10T05:38:48.844Z,101077.92
2022-11-10T05:41:36.719Z,101089.86
2022-11-10T05:44:24.364Z,101086.83
2022-11-10T05:47:12.509Z,101090.41
2022-11-10T05:50:00.614Z,101094.33
2022-11-10T05:52:52.358Z,101105.92
2022-11-10T05:55:40.450Z,101102.89
2022-11-10T05:58:27.981Z,101109.20
2022-11-10T06:01:15.586Z,101118.57
2022-11-10T06:04:03.439Z,101108.89
2022-11-10T06:06:51.838Z,101111.53
2022-11-10T06:09:39.847Z,101110.22
2022-11-10T06:12:29.757Z,101115.34
2022-11-10T06:15:17.450Z,101114.34
2022-11-10T06:18:06.453Z,101119.98
2022-11-10T06:20:54.488Z,101116.80
2022-11-10T06:23:43.234Z,101128.73
2022-11-10T06:26:31.893Z,101130.49
2022-11-10T06:29:25.532Z,101131.89
2022-11-10T06:32:11.768Z,101134.81
2022-11-10T06:35:00.806Z,101136.02
2022-11-10T06:38:06.590Z,101131.77
2022-11-10T06:40:56.486Z,101133.84
2022-11-10T06:43:43.992Z,101137.80
2022-11-10T06:46:34.982Z,101134.77
2022-11-10T06:49:22.133Z,101133.79
2022-11-10T06:52:10.207Z,101133.48
2022-11-10T06:54:58.897Z,101131.80
2022-11-10T06:57:47.538Z,101132.50
2022-11-10T07:00:36.686Z,101135.06
2022-11-10T07:03:24.597Z,101131.67
2022-11-10T07:06:13.059Z,101123.50
2022-11-10T07:09:00.887Z,101127.59
2022-11-10T07:11:50.646Z,101129.80
2022-11-10T07:14:38.287Z,101135.67
2022-11-10T07:17:25.787Z,101134.50
2022-11-10T07:20:13.922Z,101131.62
2022-11-10T07:23:03.332Z,101131.11
2022-11-10T07:25:50.552Z,101137.42
2022-11-10T07:28:39.263Z,101138.63
2022-11-10T07:31:28.082Z,101132.86
2022-11-10T07:34:15.942Z,101136.81
2022-11-10T07:37:04.373Z,101131.91
2022-11-10T07:39:51.654Z,101134.31
2022-11-10T07:42:41.009Z,101136.72
2022-11-10T07:45:28.273Z,101135.55
2022-11-10T07:48:16.617Z,101134.71
2022-11-10T07:51:04.925Z,101138.67
2022-11-10T07:53:52.296Z,101143.14
2022-11-10T07:56:39.410Z,101142.47
2022-11-10T07:59:26.362Z,101140.62
2022-11-10T08:02:13.688Z,101138.11
2022-11-10T08:05:00.828Z,101136.60
2022-11-10T08:07:50.381Z,101137.52
2022-11-10T08:10:38.483Z,101129.19
2022-11-10T08:13:25.920Z,101137.23
2022-11-10T08:16:14.653Z,101141.02
2022-11-10T08:19:02.620Z,101146.66
2022-11-10T08:21:50.977Z,101139.86
2022-11-10T08:24:38.907Z,101145.50
2022-11-10T08:27:26.169Z,101146.38
2022-11-10T08:30:14.908Z,101154.23
2022-11-10T08:33:03.155Z,101154.07
2022-11-10T08:35:52.715Z,101152.89
2022-11-10T08:38:42.118Z,101152.21
2022-11-10T08:41:30.687Z,101147.79
2022-11-10T08:44:20.765Z,101155.02
2022-11-10T08:47:08.067Z,101147.34
2022-11-10T08:49:55.983Z,101157.59
2022-11-10T08:52:46.207Z,101148.72
2022-11-10T08:55:39.714Z,101148.21
2022-11-10T08:58:27.387Z,101152.66
2022-11-10T09:01:15.737Z,101155.43
2022-11-10T09:04:04.271Z,101155.44
2022-11-10T09:06:55.217Z,101147.42
2022-11-10T09:09:46.667Z,101147.61
2022-11-10T09:12:32.948Z,101150.86
2022-11-10T09:15:20.458Z,101149.33
2022-11-10T09:18:08.875Z,101140.79
2022-11-10T09:20:57.997Z,101145.91
2022-11-10T09:23:46.618Z,101136.02
2022-11-10T09:26:40.832Z,101142.16
2022-11-10T09:29:28.349Z,101142.00
2022-11-10T09:32:15.956Z,101149.17
2022-11-10T09:35:04.569Z,101144.91
2022-11-10T09:37:53.266Z,101140.30
2022-11-10T09:41:02.904Z,101151.58
2022-11-10T09:44:17.597Z,101155.84
2022-11-10T09:47:42.452Z,101145.26
2022-11-10T09:50:17.609Z,101148.84
2022-11-10T09:53:06.149Z,101139.28
2022-11-10T09:56:02.184Z,101139.11
2022-11-10T09:58:51.983Z,101140.48
2022-11-10T10:01:51.684Z,101133.81
2022-11-10T10:05:19.013Z,101136.72
2022-11-10T10:08:11.892Z,101130.23
2022-11-10T10:11:08.320Z,101133.48
2022-11-10T10:14:17.976Z,101133.66
2022-11-10T10:17:31.257Z,101136.73
2022-11-10T10:20:35.338Z,101137.06
2022-11-10T10:26:31.082Z,101139.45
2022-11-10T10:29:37.061Z,101136.05
2022-11-10T10:32:23.273Z,101134.33
2022-11-10T10:35:17.222Z,101141.85
2022-11-10T10:38:06.112Z,101133.14
2022-11-10T10:40:54.411Z,101140.66
2022-11-10T10:43:48.078Z,101137.08
2022-11-10T10:47:02.768Z,101138.95
2022-11-10T10:49:52.352Z,101139.81
2022-11-10T10:52:39.199Z,101134.68
2022-11-10T10:55:35.722Z,101139.47
2022-11-10T10:58:53.573Z,101142.02
2022-11-10T11:01:41.004Z,101127.84
2022-11-10T11:04:35.281Z,101139.80
2022-11-10T11:07:50.465Z,101140.13
2022-11-10T11:10:54.360Z,101140.83
2022-11-10T11:14:27.233Z,101151.07
2022-11-10T11:17:21.165Z,101147.32
2022-11-10T11:20:14.741Z,101144.08
2022-11-10T11:23:16.982Z,101141.17
2022-11-10T11:26:45.673Z,101146.13
2022-11-10T11:30:03.762Z,101149.20
2022-11-10T11:33:22.505Z,101151.42
2022-11-10T11:36:30.782Z,101154.33
2022-11-10T11:39:36.881Z,101149.72
2022-11-10T11:42:33.728Z,101160.47
2022-11-10T11:45:46.065Z,101161.65
2022-11-10T11:49:10.215Z,101177.53
2022-11-10T11:52:25.732Z,101160.46
2022-11-10T11:55:55.942Z,101164.73
2022-11-10T11:59:06.020Z,101162.67
2022-11-10T12:02:14.281Z,101161.64
2022-11-10T12:05:25.959Z,101158.22
2022-11-10T12:08:47.959Z,101153.78
2022-11-10T12:11:41.890Z,101151.73
2022-11-10T12:14:40.848Z,101146.94
2022-11-10T12:17:55.402Z,101143.01
2022-11-10T12:21:19.972Z,101143.19
2022-11-10T12:24:31.188Z,101155.48
2022-11-10T12:27:32.492Z,101155.47
2022-11-10T12:30:21.483Z,101158.89
2022-11-10T12:33:44.525Z,101151.89
2022-11-10T12:36:33.797Z,101146.94
2022-11-10T12:39:38.772Z,101149.33
2022-11-10T12:42:31.051Z,101149.67
2022-11-10T12:45:28.494Z,101154.79
2022-11-10T12:48:16.677Z,101159.74
2022-11-10T12:51:15.178Z,101161.62
2022-11-10T12:54:04.995Z,101154.95
2022-11-10T12:57:04.634Z,101156.16
2022-11-10T13:00:08.289Z,101149.16
2022-11-10T13:03:23.393Z,101150.88
2022-11-10T13:06:27.367Z,101160.61
2022-11-10T13:09:31.378Z,101156.52
2022-11-10T13:12:23.107Z,101155.66
2022-11-10T13:15:39.990Z,101151.21
2022-11-10T13:18:41.601Z,101156.33
2022-11-10T13:22:00.967Z,101159.91
2022-11-10T13:24:54.262Z,101156.48
2022-11-10T13:27:50.562Z,101156.14
2022-11-10T13:30:45.583Z,101163.15
2022-11-10T13:33:39.676Z,101172.87
2022-11-10T13:36:52.092Z,101182.44
2022-11-10T13:39:40.464Z,101178.34
2022-11-10T13:42:28.383Z,101179.03
2022-11-10T13:45:40.284Z,101184.84
2022-11-10T13:48:51.694Z,101188.94
2022-11-10T13:52:18.614Z,101187.06
2022-11-10T13:55:29.405Z,101176.13
2022-11-10T13:58:21.130Z,101175.80
2022-11-10T14:01:23.344Z,101175.97
2022-11-10T14:04:12.735Z,101175.97
2022-11-10T14:07:00.617Z,101171.36
2022-11-10T14:09:53.034Z,101178.70
2022-11-10T14:12:52.714Z,101172.37
2022-11-10T14:15:46.633Z,101167.42
2022-11-10T14:18:48.904Z,101171.18
2022-11-10T14:21:55.394Z,101173.75
2022-11-10T14:25:08.000Z,101172.72
2022-11-10T14:27:58.379Z,101169.83
2022-11-10T14:30:51.167Z,101165.73
2022-11-10T14:33:39.175Z,101167.61
2022-11-10T14:36:26.913Z,101159.58
2022-11-10T14:39:16.053Z,101161.63
2022-11-10T14:42:04.982Z,101161.29
2022-11-10T14:45:18.841Z,101159.06
2022-11-10T14:48:18.128Z,101158.55
2022-11-10T14:51:17.309Z,101151.55
2022-11-10T14:54:04.673Z,101147.28
2022-11-10T14:56:53.067Z,101155.82
2022-11-10T14:59:40.337Z,101150.52
2022-11-10T15:02:28.419Z,101155.30
2022-11-10T15:05:16.449Z,101159.40
2022-11-10T15:08:05.922Z,101165.03
2022-11-10T15:10:53.669Z,101167.59
2022-11-10T15:13:42.983Z,101169.47
2022-11-10T15:16:36.240Z,101172.89
2022-11-10T15:19:49.847Z,101166.41
2022-11-10T15:22:37.520Z,101173.25
2022-11-10T15:25:27.757Z,101173.59
2022-11-10T15:28:26.665Z,101170.86
2022-11-10T15:31:26.488Z,101168.47
2022-11-10T15:34:31.911Z,101172.22
2022-11-10T15:37:34.002Z,101162.15
2022-11-10T15:40:45.414Z,101166.08
2022-11-10T15:43:34.675Z,101165.41
2022-11-10T15:46:25.048Z,101166.08
2022-11-10T15:49:35.066Z,101173.42
2022-11-10T15:52:24.059Z,101167.27
2022-11-10T15:55:23.473Z,101168.64
2022-11-10T15:58:19.628Z,101166.77
2022-11-10T16:01:10.551Z,101153.61
2022-11-10T16:03:58.505Z,101151.39
2022-11-10T16:06:46.041Z,101152.76
2022-11-10T16:09:34.399Z,101155.66
2022-11-10T16:12:22.354Z,101152.77
2022-11-10T16:15:16.678Z,101153.45
2022-11-10T16:18:05.294Z,101143.88
2022-11-10T16:20:53.071Z,101145.08
2022-11-10T16:23:42.332Z,101146.28
2022-11-10T16:26:31.536Z,101153.79
2022-11-10T16:29:19.666Z,101158.05
2022-11-10T16:32:07.347Z,101153.09
2022-11-10T16:34:55.166Z,101152.42
2022-11-10T16:37:43.306Z,101155.16
2022-11-10T16:40:31.107Z,101153.28
2022-11-10T16:43:19.392Z,101159.25
2022-11-10T16:46:23.033Z,101156.52
2022-11-10T16:49:27.304Z,101164.38
2022-11-10T16:52:17.698Z,101157.55
2022-11-10T16:55:06.375Z,101162.00
2022-11-10T16:57:55.238Z,101156.37
2022-11-10T17:00:44.124Z,101155.34
2022-11-10T17:03:40.321Z,101161.67
2022-11-10T17:06:28.903Z,101158.42
2022-11-10T17:09:21.412Z,101163.03
2022-11-10T17:12:12.919Z,101167.98
2022-11-10T17:15:00.946Z,101172.09
2022-11-10T17:17:52.122Z,101170.39
2022-11-10T17:20:40.024Z,101158.59
2022-11-10T17:23:29.104Z,101158.59
2022-11-10T17:26:18.275Z,101165.09
2022-11-10T17:29:06.380Z,101162.36
2022-11-10T17:31:55.795Z,101171.06
2022-11-10T17:34:43.965Z,101164.06
2022-11-10T17:37:31.528Z,101168.67
2022-11-10T17:40:23.374Z,101174.48
2022-11-10T17:43:12.959Z,101169.53
2022-11-10T17:46:00.287Z,101177.22
2022-11-10T17:48:50.356Z,101173.13
2022-11-10T17:51:38.413Z,101178.08
2022-11-10T17:54:25.747Z,101174.99
2022-11-10T17:57:14.507Z,101178.58
2022-11-10T18:00:02.524Z,101176.36
2022-11-10T18:02:55.496Z,101164.06
2022-11-10T18:05:44.753Z,101162.70
2022-11-10T18:08:33.263Z,101163.38
2022-11-10T18:11:20.617Z,101155.86
2022-11-10T18:14:09.085Z,101159.45
2022-11-10T18:16:58.884Z,101158.94
2022-11-10T18:19:48.024Z,101167.98
2022-11-10T18:22:35.525Z,101174.82
2022-11-10T18:25:22.452Z,101179.94
2022-11-10T18:28:12.186Z,101184.89
2022-11-10T18:31:10.426Z,101182.85
2022-11-10T18:33:57.503Z,101182.50
2022-11-10T18:36:45.650Z,101186.61
2022-11-10T18:39:32.470Z,101183.70
2022-11-10T18:42:19.827Z,101189.68
2022-11-10T18:45:08.676Z,101187.46
2022-11-10T18:48:02.803Z,101189.68
2022-11-10T18:50:51.619Z,101187.46
2022-11-10T18:53:40.501Z,101188.66
2022-11-10T18:56:28.654Z,101193.45
2022-11-10T18:59:16.987Z,101194.98
2022-11-10T19:02:04.341Z,101203.19
2022-11-10T19:04:53.661Z,101202.34
2022-11-10T19:07:42.923Z,101198.58
2022-11-10T19:10:31.674Z,101200.80
2022-11-10T19:13:19.637Z,101208.48
2022-11-10T19:16:12.809Z,101212.75
2022-11-10T19:19:00.725Z,101210.53
2022-11-10T19:21:48.078Z,101200.97
2022-11-10T19:24:53.826Z,101202.67
2022-11-10T19:27:26.710Z,101203.70
2022-11-10T19:30:15.210Z,101196.34
2022-11-10T19:33:02.349Z,101205.05
2022-11-10T19:35:49.649Z,101200.95
2022-11-10T19:38:37.816Z,101202.33
2022-11-10T19:41:27.507Z,101197.03
2022-11-10T19:44:15.648Z,101199.25
2022-11-10T19:47:04.260Z,101200.28
2022-11-10T19:49:51.531Z,101197.20
2022-11-10T19:52:39.827Z,101191.39
2022-11-10T19:55:27.155Z,101190.88
2022-11-10T19:58:14.526Z,101187.64
2022-11-10T20:01:02.229Z,101192.41
2022-11-10T20:03:49.247Z,101186.95
2022-11-10T20:06:37.414Z,101186.95
2022-11-10T20:09:25.034Z,101193.79
2022-11-10T20:12:13.845Z,101196.87
2022-11-10T20:15:02.749Z,101201.66
2022-11-10T20:17:50.782Z,101197.55
2022-11-10T20:20:39.351Z,101200.63
2022-11-10T20:23:27.303Z,101195.17
2022-11-10T20:26:17.139Z,101194.48
2022-11-10T20:29:04.162Z,101195.52
2022-11-10T20:31:52.054Z,101197.39
2022-11-10T20:34:40.157Z,101194.66
2022-11-10T20:37:27.644Z,101199.09
2022-11-10T20:40:42.307Z,101203.37
2022-11-10T20:43:05.739Z,101200.30
2022-11-10T20:45:54.621Z,101198.93
2022-11-10T20:48:42.972Z,101205.77
2022-11-10T20:51:30.436Z,101199.62
2022-11-10T20:54:17.910Z,101210.89
2022-11-10T20:57:06.555Z,101206.11
2022-11-10T20:59:56.038Z,101216.02
2022-11-10T21:02:44.559Z,101214.48
2022-11-10T21:05:32.323Z,101213.11
2022-11-10T21:08:20.023Z,101211.41
2022-11-10T21:11:09.444Z,101213.96
2022-11-10T21:13:56.853Z,101215.66
2022-11-10T21:16:44.110Z,101216.17
2022-11-10T21:19:35.243Z,101217.03
2022-11-10T21:22:22.807Z,101221.48
2022-11-10T21:25:10.650Z,101225.92
2022-11-10T21:27:59.210Z,101222.33
2022-11-10T21:30:46.344Z,101230.35
2022-11-10T21:33:35.310Z,101228.48
2022-11-10T21:36:23.191Z,101237.20
2022-11-10T21:39:10.617Z,101236.17
2022-11-10T21:41:58.331Z,101227.28
2022-11-10T21:44:45.772Z,101231.55
2022-11-10T21:47:34.706Z,101228.48
2022-11-10T21:50:23.027Z,101225.23
2022-11-10T21:53:11.186Z,101226.25
2022-11-10T21:56:03.284Z,101226.25
2022-11-10T21:58:50.583Z,101230.70
2022-11-10T22:01:38.989Z,101225.58
2022-11-10T22:04:26.533Z,101221.13
2022-11-10T22:07:24.566Z,101227.78
2022-11-10T22:10:30.250Z,101226.93
2022-11-10T22:13:39.123Z,101223.17
2022-11-10T22:17:02.538Z,101222.48
2022-11-10T22:19:49.858Z,101225.56
2022-11-10T22:22:37.493Z,101226.42
2022-11-10T22:25:27.580Z,101225.40
2022-11-10T22:28:15.009Z,101224.89
2022-11-10T22:31:03.988Z,101227.45
2022-11-10T22:33:51.708Z,101220.97
2022-11-10T22:36:39.385Z,101225.58
2022-11-10T22:39:45.169Z,101234.45
2022-11-10T22:42:51.677Z,101231.90
2022-11-10T22:45:39.634Z,101234.12
2022-11-10T22:48:26.931Z,101239.59
2022-11-10T22:51:14.266Z,101233.09
2022-11-10T22:54:01.427Z,101236.85
2022-11-10T22:56:50.646Z,101235.31
2022-11-10T22:59:38.380Z,101238.73
2022-11-10T23:02:26.322Z,101233.80
2022-11-10T23:05:15.101Z,101227.98
2022-11-10T23:08:03.526Z,101231.06
2022-11-10T23:11:00.517Z,101232.43
2022-11-10T23:13:50.151Z,101230.37
2022-11-10T23:16:37.607Z,101228.16
2022-11-10T23:19:25.312Z,101234.81
2022-11-10T23:22:13.578Z,101235.84
2022-11-10T23:25:01.153Z,101229.19
2022-11-10T23:27:51.074Z,101232.43
2022-11-10T23:30:39.456Z,101234.14
2022-11-10T23:33:32.538Z,101229.19
2022-11-10T23:36:19.720Z,101233.45
2022-11-10T23:39:07.803Z,101237.38
2022-11-10T23:41:55.418Z,101228.67
2022-11-10T23:44:42.904Z,101230.89
2022-11-10T23:47:31.037Z,101236.19
2022-11-10T23:50:18.246Z,101235.67
2022-11-10T23:53:05.218Z,101236.70
2022-11-10T23:56:01.807Z,101241.65
2022-11-10T23:58:49.684Z,101246.59
